Lynn, MA

7:21 AM EST on March 05, 2015 (GMT -0500)
Lawrence Municipal | Change Station
CLOSE
Current Station
Airport
Location: Lawrence,
Elevation: 148 ft
Nearby Weather Stations

Elev 148 ft 42.72 °N, 71.12 °W | Updated 27 minutes ago

Snow
Snow
32 °F
Feels Like 20 °F
N
18
Wind Variable Wind from WNW
Gusts 26 mph

Today
High -- | Low -- °F
--% Chance of Precip.
Yesterday
High -- | Low -- °F
Precip. -- in
6:13 AM 5:38 PM
Full, 100% visible
Pressure 29.99 in
Visibility 10.0 miles
Clouds Overcast 6000 ft
Windchill 20 °F
Dew Point 12 °F
Humidity 44%
Rainfall 0.00 in
Snow Depth Not available.
UV 0 out of 12
Pollen .40 out of 12
Air Quality Not available.
Flu Activity Not available.
METAR KLWM 051154Z AUTO 29016G23KT 10SM OVC060 00/M11 A2998 RMK AO2 PK WND 30029/1128 SLP154 T00001111 10028 20000 51033

More Conditions Fewer Conditions

Pressure 29.99 in
Visibility 10.0 miles
Clouds Overcast 6000 ft
Windchill 20 °F
Dew Point 12 °F
Humidity 44%
Rainfall 0.00 in
Snow Depth Not available.
UV 0 out of 12
Pollen .40 out of 12
Air Quality Not available.
Flu Activity Not available.
METAR KLWM 051154Z AUTO 29016G23KT 10SM OVC060 00/M11 A2998 RMK AO2 PK WND 30029/1128 SLP154 T00001111 10028 20000 51033

More Conditions Fewer Conditions

10-Day Weather Forecast

Almanac

Astronomy

Mar. 05, 2015 Rise Set
Actual Time
Civil Twilight
Nautical Twilight
Astronomical Twilight
Moon
Length of Visible Light
Length of Day
Tomorrow will be .
, % of the Moon is Illuminated

Today's Extremes

State Highs State Lows

Community

WunderPhotos

Upload Photos

1,802,723 photos uploaded!

WunderBlogs® & News

Nearby

Air Quality

  Air Quality AQ Index Pollutant
Not available.

Snow Depth

Station Depth Elevation

Earthquake Activity

City Distance Mag. Time & Date
Minimum magnitude displayed is 2.5.

Coastal Water Temperatures

Place Temperature

Nearby Weather Stations